createdAt,value
2023-02-24T00:02:30.059Z,100.00
2023-02-24T00:05:03.406Z,100.00
2023-02-24T00:07:34.373Z,100.00
2023-02-24T00:10:05.719Z,100.00
2023-02-24T00:12:36.311Z,100.00
2023-02-24T00:15:07.359Z,100.00
2023-02-24T00:17:39.119Z,100.00
2023-02-24T00:20:16.925Z,100.00
2023-02-24T00:22:48.378Z,100.00
2023-02-24T00:25:19.175Z,100.00
2023-02-24T00:27:49.614Z,100.00
2023-02-24T00:30:21.732Z,100.00
2023-02-24T00:32:52.146Z,100.00
2023-02-24T00:35:25.490Z,100.00
2023-02-24T00:37:59.370Z,100.00
2023-02-24T00:40:31.405Z,100.00
2023-02-24T00:43:03.278Z,100.00
2023-02-24T00:45:36.966Z,100.00
2023-02-24T00:48:10.927Z,100.00
2023-02-24T00:50:44.412Z,100.00
2023-02-24T00:53:14.666Z,100.00
2023-02-24T00:55:45.277Z,100.00
2023-02-24T00:58:19.842Z,100.00
2023-02-24T01:00:51.119Z,100.00
2023-02-24T01:03:21.668Z,100.00
2023-02-24T01:05:54.823Z,100.00
2023-02-24T01:08:26.876Z,100.00
2023-02-24T01:11:14.075Z,100.00
2023-02-24T01:13:44.213Z,100.00
2023-02-24T01:16:18.868Z,100.00
2023-02-24T01:18:50.365Z,100.00
2023-02-24T01:21:23.937Z,100.00
2023-02-24T01:23:55.967Z,100.00
2023-02-24T01:26:26.954Z,100.00
2023-02-24T01:28:58.610Z,100.00
2023-02-24T01:31:30.114Z,100.00
2023-02-24T01:34:06.159Z,100.00
2023-02-24T01:36:39.932Z,100.00
2023-02-24T01:39:11.272Z,100.00
2023-02-24T01:41:43.021Z,100.00
2023-02-24T01:44:44.501Z,100.00
2023-02-24T01:47:16.387Z,100.00
2023-02-24T01:49:49.963Z,100.00
2023-02-24T01:52:25.703Z,100.00
2023-02-24T01:54:59.756Z,100.00
2023-02-24T01:57:34.744Z,100.00
2023-02-24T02:00:19.895Z,100.00
2023-02-24T02:02:53.293Z,100.00
2023-02-24T02:05:25.286Z,100.00
2023-02-24T02:07:58.655Z,100.00
2023-02-24T02:10:29.241Z,100.00
2023-02-24T02:12:59.788Z,100.00
2023-02-24T02:15:36.302Z,100.00
2023-02-24T02:18:16.282Z,100.00
2023-02-24T02:21:29.853Z,100.00
2023-02-24T02:24:14.946Z,100.00
2023-02-24T02:27:21.822Z,100.00
2023-02-24T02:30:22.536Z,100.00
2023-02-24T02:33:31.480Z,100.00
2023-02-24T02:36:14.443Z,100.00
2023-02-24T02:38:57.705Z,100.00
2023-02-24T02:41:35.741Z,100.00
2023-02-24T02:44:12.101Z,100.00
2023-02-24T02:46:48.283Z,100.00
2023-02-24T02:49:25.072Z,100.00
2023-02-24T02:52:10.620Z,100.00
2023-02-24T02:54:49.927Z,100.00
2023-02-24T02:57:24.426Z,100.00
2023-02-24T03:00:00.580Z,100.00
2023-02-24T03:02:40.167Z,100.00
2023-02-24T03:05:17.480Z,100.00
2023-02-24T03:07:57.041Z,100.00
2023-02-24T03:10:34.459Z,100.00
2023-02-24T03:13:08.864Z,100.00
2023-02-24T03:15:45.096Z,100.00
2023-02-24T03:18:22.947Z,100.00
2023-02-24T03:20:57.458Z,100.00
2023-02-24T03:23:34.025Z,100.00
2023-02-24T03:26:17.511Z,100.00
2023-02-24T03:28:59.440Z,100.00
2023-02-24T03:31:38.093Z,100.00
2023-02-24T03:34:13.452Z,100.00
2023-02-24T03:36:46.449Z,100.00
2023-02-24T03:39:19.843Z,100.00
2023-02-24T03:42:18.164Z,100.00
2023-02-24T03:44:49.010Z,100.00
2023-02-24T03:47:20.633Z,100.00
2023-02-24T03:49:52.038Z,100.00
2023-02-24T03:52:35.430Z,100.00
2023-02-24T03:55:27.953Z,100.00
2023-02-24T04:30:05.221Z,100.00
2023-02-24T04:32:38.916Z,100.00
2023-02-24T04:35:12.609Z,100.00
2023-02-24T04:37:47.260Z,100.00
2023-02-24T04:40:22.308Z,100.00
2023-02-24T04:42:54.473Z,100.00
2023-02-24T04:45:27.635Z,100.00
2023-02-24T04:48:03.336Z,100.00
2023-02-24T04:50:36.381Z,100.00
2023-02-24T04:53:09.721Z,100.00
2023-02-24T04:55:43.085Z,100.00
2023-02-24T04:58:19.416Z,100.00
2023-02-24T05:00:53.295Z,100.00
2023-02-24T05:03:30.503Z,100.00
2023-02-24T05:06:03.536Z,100.00
2023-02-24T05:08:34.465Z,100.00
2023-02-24T05:11:07.309Z,100.00
2023-02-24T05:13:37.894Z,100.00
2023-02-24T05:16:10.602Z,100.00
2023-02-24T05:18:45.043Z,100.00
2023-02-24T05:21:40.938Z,100.00
2023-02-24T05:24:11.993Z,100.00
2023-02-24T05:26:44.649Z,100.00
2023-02-24T05:29:16.025Z,100.00
2023-02-24T05:31:47.796Z,100.00
2023-02-24T05:34:21.102Z,100.00
2023-02-24T05:36:51.403Z,100.00
2023-02-24T05:39:22.330Z,100.00
2023-02-24T05:41:55.134Z,100.00
2023-02-24T05:44:27.436Z,100.00
2023-02-24T05:47:00.179Z,100.00
2023-02-24T05:49:35.958Z,100.00
2023-02-24T05:52:10.304Z,100.00
2023-02-24T05:54:43.431Z,100.00
2023-02-24T05:57:17.181Z,100.00
2023-02-24T05:59:48.810Z,100.00
2023-02-24T06:02:28.117Z,100.00
2023-02-24T06:05:01.340Z,100.00
2023-02-24T06:07:34.930Z,100.00
2023-02-24T06:10:10.791Z,100.00
2023-02-24T06:12:41.676Z,100.00
2023-02-24T06:15:13.310Z,100.00
2023-02-24T06:17:43.901Z,100.00
2023-02-24T06:20:18.633Z,100.00
2023-02-24T06:22:49.322Z,100.00
2023-02-24T06:25:19.851Z,100.00
2023-02-24T06:27:54.965Z,100.00
2023-02-24T06:30:27.753Z,100.00
2023-02-24T06:32:58.361Z,100.00
2023-02-24T06:35:33.234Z,100.00
2023-02-24T06:38:04.715Z,100.00
2023-02-24T06:40:35.136Z,100.00
2023-02-24T06:43:05.652Z,100.00
2023-02-24T06:45:36.954Z,100.00
2023-02-24T06:48:09.468Z,100.00
2023-02-24T06:50:43.460Z,100.00
2023-02-24T06:53:17.190Z,100.00
2023-02-24T06:55:49.482Z,100.00
2023-02-24T06:58:24.525Z,100.00
2023-02-24T07:01:03.118Z,100.00
2023-02-24T07:03:39.927Z,100.00
2023-02-24T07:06:25.000Z,100.00
2023-02-24T07:08:55.872Z,100.00
2023-02-24T07:11:26.416Z,100.00
2023-02-24T07:13:57.926Z,100.00
2023-02-24T07:16:31.780Z,100.00
2023-02-24T07:19:02.900Z,100.00
2023-02-24T07:21:39.845Z,100.00
2023-02-24T07:24:13.696Z,100.00
2023-02-24T07:26:51.933Z,100.00
2023-02-24T07:29:22.779Z,100.00
2023-02-24T07:31:55.272Z,100.00
2023-02-24T07:34:28.547Z,100.00
2023-02-24T07:37:06.997Z,100.00
2023-02-24T07:39:38.067Z,100.00
2023-02-24T07:42:09.750Z,100.00
2023-02-24T07:44:49.750Z,100.00
2023-02-24T07:47:21.567Z,100.00
2023-02-24T07:49:52.259Z,100.00
2023-02-24T07:52:25.576Z,100.00
2023-02-24T07:54:55.901Z,100.00
2023-02-24T07:57:26.398Z,100.00
2023-02-24T07:59:56.830Z,100.00
2023-02-24T08:02:27.493Z,100.00
2023-02-24T08:04:58.193Z,100.00
2023-02-24T08:07:31.331Z,100.00
2023-02-24T08:10:14.842Z,100.00
2023-02-24T08:12:46.200Z,100.00
2023-02-24T08:15:25.309Z,100.00
2023-02-24T08:17:59.763Z,100.00
2023-02-24T08:20:36.515Z,100.00
2023-02-24T08:23:11.168Z,100.00
2023-02-24T08:25:44.903Z,100.00
2023-02-24T08:28:15.671Z,100.00
2023-02-24T08:30:48.819Z,100.00
2023-02-24T08:33:24.268Z,100.00
2023-02-24T08:57:06.353Z,100.00
2023-02-24T08:59:50.404Z,100.00
2023-02-24T09:02:24.578Z,100.00
2023-02-24T09:04:57.365Z,100.00
2023-02-24T09:07:30.031Z,100.00
2023-02-24T09:10:00.323Z,100.00
2023-02-24T09:12:33.233Z,100.00
2023-02-24T09:15:08.083Z,100.00
2023-02-24T09:17:50.429Z,100.00
2023-02-24T09:20:35.261Z,100.00
2023-02-24T09:23:07.864Z,100.00
2023-02-24T09:25:49.799Z,100.00
2023-02-24T09:28:25.000Z,100.00
2023-02-24T09:31:00.727Z,100.00
2023-02-24T09:33:39.685Z,100.00
2023-02-24T09:36:20.767Z,100.00
2023-02-24T09:39:14.380Z,100.00
2023-02-24T09:42:20.291Z,100.00
2023-02-24T09:44:55.919Z,100.00
2023-02-24T09:47:57.319Z,100.00
2023-02-24T09:51:02.220Z,100.00
2023-02-24T09:53:41.594Z,100.00
2023-02-24T09:56:23.966Z,100.00
2023-02-24T09:59:00.560Z,100.00
2023-02-24T10:01:43.872Z,100.00
2023-02-24T10:04:34.025Z,100.00
2023-02-24T10:07:08.437Z,100.00
2023-02-24T10:09:41.263Z,100.00
2023-02-24T10:12:21.735Z,100.00
2023-02-24T10:15:17.162Z,100.00
2023-02-24T10:17:52.401Z,100.00
2023-02-24T10:20:40.202Z,100.00
2023-02-24T10:23:18.235Z,100.00
2023-02-24T10:25:56.787Z,100.00
2023-02-24T10:28:39.251Z,100.00
2023-02-24T10:31:25.854Z,100.00
2023-02-24T11:17:00.356Z,100.00
2023-02-24T11:19:32.343Z,99.36
2023-02-24T11:22:03.688Z,95.22
2023-02-24T11:24:34.019Z,94.50
2023-02-24T11:27:06.333Z,92.42
2023-02-24T11:29:50.291Z,94.55
2023-02-24T11:32:40.917Z,94.41
2023-02-24T11:35:21.038Z,94.84
2023-02-24T11:38:03.353Z,94.12
2023-02-24T11:40:40.257Z,96.44
2023-02-24T11:43:18.580Z,96.25
2023-02-24T11:45:53.548Z,96.70
2023-02-24T11:48:32.361Z,95.88
2023-02-24T11:51:05.674Z,95.79
2023-02-24T11:53:41.352Z,97.32
2023-02-24T11:56:17.258Z,96.39
2023-02-24T11:58:53.905Z,93.87
2023-02-24T12:01:30.141Z,93.08
2023-02-24T12:04:13.574Z,93.03
2023-02-24T12:06:55.668Z,92.85
2023-02-24T12:09:30.150Z,94.07
2023-02-24T12:12:04.510Z,94.89
2023-02-24T12:14:40.736Z,92.12
2023-02-24T12:17:22.120Z,89.62
2023-02-24T12:20:05.360Z,91.82
2023-02-24T12:22:46.132Z,87.56
2023-02-24T12:25:19.171Z,87.18
2023-02-24T12:28:02.354Z,84.98
2023-02-24T12:30:57.868Z,84.46
2023-02-24T12:33:52.547Z,83.78
2023-02-24T12:36:43.696Z,84.43
2023-02-24T12:39:18.068Z,83.55
2023-02-24T12:42:04.667Z,81.95
2023-02-24T12:44:42.437Z,84.06
2023-02-24T12:47:16.240Z,81.76
2023-02-24T12:50:08.071Z,80.48
2023-02-24T12:52:51.663Z,80.72
2023-02-24T12:55:26.592Z,78.22
2023-02-24T12:58:05.374Z,82.75
2023-02-24T13:00:45.887Z,79.28
2023-02-24T13:03:31.650Z,77.11
2023-02-24T13:06:09.959Z,75.37
2023-02-24T13:08:54.567Z,74.68
2023-02-24T13:11:37.770Z,73.30
2023-02-24T13:14:17.293Z,74.08
2023-02-24T13:16:47.380Z,72.94
2023-02-24T13:19:23.614Z,71.60
2023-02-24T13:22:09.326Z,69.56
2023-02-24T13:24:44.265Z,70.51
2023-02-24T13:27:27.150Z,70.48
2023-02-24T13:29:59.114Z,68.83
2023-02-24T13:32:32.739Z,69.34
2023-02-24T13:35:05.069Z,70.07
2023-02-24T13:37:38.562Z,70.77
2023-02-24T13:40:29.385Z,71.10
2023-02-24T13:43:02.112Z,71.95
2023-02-24T13:45:33.716Z,72.62
2023-02-24T13:48:26.083Z,74.08
2023-02-24T13:51:09.813Z,76.34
2023-02-24T13:53:59.634Z,77.14
2023-02-24T13:56:45.088Z,76.35
2023-02-24T13:59:27.796Z,77.44
2023-02-24T14:02:02.482Z,75.99
2023-02-24T14:04:35.324Z,76.38
2023-02-24T14:07:08.226Z,74.24
2023-02-24T14:09:42.415Z,76.35
2023-02-24T14:12:18.868Z,76.03
2023-02-24T14:14:50.617Z,75.41
2023-02-24T14:17:28.415Z,75.10
2023-02-24T14:20:11.277Z,74.57
2023-02-24T14:22:46.799Z,75.76
2023-02-24T14:25:18.333Z,74.84
2023-02-24T14:27:54.638Z,75.32
2023-02-24T14:30:29.100Z,75.14
2023-02-24T14:32:59.679Z,76.38
2023-02-24T14:35:35.231Z,76.13
2023-02-24T14:38:06.455Z,77.12
2023-02-24T14:40:36.691Z,76.07
2023-02-24T14:43:17.740Z,76.78
2023-02-24T14:45:52.754Z,76.26
2023-02-24T14:48:28.259Z,77.07
2023-02-24T14:51:02.565Z,76.95
2023-02-24T14:53:37.394Z,77.71
2023-02-24T14:56:10.307Z,78.40
2023-02-24T14:58:48.871Z,78.54
2023-02-24T15:01:25.618Z,78.17
2023-02-24T15:04:03.134Z,79.23
2023-02-24T15:06:41.046Z,78.73
2023-02-24T15:09:18.805Z,79.08
2023-02-24T15:11:48.977Z,79.14
2023-02-24T15:14:27.596Z,79.98
2023-02-24T15:17:01.064Z,80.69
2023-02-24T15:19:37.206Z,82.05
2023-02-24T15:22:20.560Z,80.65
2023-02-24T15:24:51.402Z,80.64
2023-02-24T15:27:39.249Z,80.66
2023-02-24T15:30:31.016Z,81.04
2023-02-24T15:33:09.530Z,81.89
2023-02-24T15:35:49.739Z,82.18
2023-02-24T15:38:25.526Z,83.21
2023-02-24T15:40:56.499Z,84.52
2023-02-24T15:43:37.273Z,84.88
2023-02-24T15:46:31.331Z,84.56
2023-02-24T15:49:03.345Z,85.84
2023-02-24T15:51:38.671Z,86.96
2023-02-24T15:54:11.701Z,89.35
2023-02-24T15:56:46.228Z,89.36
2023-02-24T15:59:16.968Z,89.70
2023-02-24T16:01:51.976Z,92.05
2023-02-24T16:04:22.591Z,93.05
2023-02-24T16:06:57.205Z,94.19
2023-02-24T16:09:33.876Z,94.62
2023-02-24T16:12:06.620Z,95.14
2023-02-24T16:14:37.094Z,95.63
2023-02-24T16:17:19.080Z,96.25
2023-02-24T16:19:49.207Z,97.50
2023-02-24T16:22:19.295Z,97.44
2023-02-24T16:24:49.391Z,97.94
2023-02-24T16:27:21.140Z,98.40
2023-02-24T16:29:53.247Z,98.96
2023-02-24T16:32:26.791Z,100.00
2023-02-24T16:34:57.581Z,100.00
2023-02-24T16:37:30.836Z,100.00
2023-02-24T16:40:01.996Z,100.00
2023-02-24T16:42:32.092Z,100.00
2023-02-24T16:45:02.268Z,100.00
2023-02-24T16:47:37.591Z,100.00
2023-02-24T16:50:08.541Z,100.00
2023-02-24T16:52:38.645Z,100.00
2023-02-24T16:55:09.445Z,100.00
2023-02-24T16:57:39.569Z,100.00
2023-02-24T17:00:11.475Z,100.00
2023-02-24T17:02:46.171Z,100.00
2023-02-24T17:05:21.039Z,100.00
2023-02-24T17:07:51.655Z,100.00
2023-02-24T17:10:23.035Z,100.00
2023-02-24T17:12:53.561Z,100.00
2023-02-24T17:15:27.976Z,100.00
2023-02-24T17:18:00.780Z,100.00
2023-02-24T17:20:30.895Z,100.00
2023-02-24T17:23:00.941Z,100.00
2023-02-24T17:25:32.582Z,100.00
2023-02-24T17:28:05.384Z,100.00
2023-02-24T17:30:40.853Z,100.00
2023-02-24T17:33:14.581Z,100.00
2023-02-24T17:35:47.111Z,100.00
2023-02-24T17:38:20.031Z,100.00
2023-02-24T17:40:50.449Z,100.00
2023-02-24T17:43:20.772Z,100.00
2023-02-24T17:45:53.239Z,100.00
2023-02-24T17:48:26.110Z,100.00
2023-02-24T17:50:56.210Z,100.00
2023-02-24T17:53:26.691Z,100.00
2023-02-24T17:56:04.545Z,100.00
2023-02-24T17:58:35.037Z,100.00
2023-02-24T18:01:06.310Z,100.00
2023-02-24T18:03:39.699Z,100.00
2023-02-24T18:06:11.927Z,100.00
2023-02-24T18:08:42.737Z,100.00
2023-02-24T18:11:17.930Z,100.00
2023-02-24T18:13:48.733Z,100.00
2023-02-24T18:16:19.027Z,100.00
2023-02-24T18:18:51.750Z,100.00
2023-02-24T18:21:22.234Z,100.00
2023-02-24T18:23:52.423Z,100.00
2023-02-24T18:26:26.100Z,100.00
2023-02-24T18:28:56.716Z,100.00
2023-02-24T18:31:28.483Z,100.00
2023-02-24T18:34:01.377Z,100.00
2023-02-24T18:36:34.692Z,100.00
2023-02-24T18:39:05.029Z,100.00
2023-02-24T18:41:35.623Z,100.00
2023-02-24T18:44:05.768Z,100.00
2023-02-24T18:46:38.294Z,100.00
2023-02-24T18:49:13.583Z,100.00
2023-02-24T18:51:46.123Z,100.00
2023-02-24T18:54:16.273Z,100.00
2023-02-24T18:56:49.382Z,100.00
2023-02-24T18:59:19.502Z,100.00
2023-02-24T19:01:51.528Z,100.00
2023-02-24T19:04:24.340Z,100.00
2023-02-24T19:06:54.465Z,100.00
2023-02-24T19:09:24.594Z,100.00
2023-02-24T19:11:56.231Z,100.00
2023-02-24T19:14:26.477Z,100.00
2023-02-24T19:17:04.373Z,100.00
2023-02-24T19:19:46.819Z,100.00
2023-02-24T19:22:17.044Z,100.00
2023-02-24T19:24:50.001Z,100.00
2023-02-24T19:27:20.178Z,100.00
2023-02-24T19:29:50.545Z,100.00
2023-02-24T19:32:20.892Z,100.00
2023-02-24T19:34:53.915Z,100.00
2023-02-24T19:37:24.013Z,100.00
2023-02-24T19:39:55.016Z,100.00
2023-02-24T19:42:25.166Z,100.00
2023-02-24T19:44:55.414Z,100.00
2023-02-24T19:47:25.486Z,100.00
2023-02-24T19:49:58.278Z,100.00
2023-02-24T19:52:28.426Z,100.00
2023-02-24T19:54:58.538Z,100.00
2023-02-24T19:57:32.327Z,100.00
2023-02-24T20:00:02.111Z,100.00
2023-02-24T20:02:42.722Z,100.00
2023-02-24T20:05:18.579Z,100.00
2023-02-24T20:07:49.106Z,100.00
2023-02-24T20:10:20.065Z,100.00
2023-02-24T20:12:50.272Z,100.00
2023-02-24T20:15:26.598Z,100.00
2023-02-24T20:18:03.318Z,100.00
2023-02-24T20:20:38.603Z,100.00
2023-02-24T20:23:08.699Z,100.00
2023-02-24T20:25:38.810Z,100.00
2023-02-24T20:28:09.730Z,100.00
2023-02-24T20:30:40.545Z,100.00
2023-02-24T20:33:11.152Z,100.00
2023-02-24T20:35:44.778Z,100.00
2023-02-24T20:38:15.506Z,100.00
2023-02-24T20:40:45.942Z,100.00
2023-02-24T20:43:16.064Z,100.00
2023-02-24T20:45:47.466Z,100.00
2023-02-24T20:48:18.811Z,100.00
2023-02-24T20:50:51.517Z,100.00
2023-02-24T20:53:21.663Z,100.00
2023-02-24T20:55:51.790Z,100.00
2023-02-24T20:58:21.893Z,100.00
2023-02-24T21:00:52.250Z,100.00
2023-02-24T21:03:24.015Z,100.00
2023-02-24T21:06:09.130Z,100.00
2023-02-24T21:08:40.281Z,100.00
2023-02-24T21:11:11.272Z,100.00
2023-02-24T21:13:43.466Z,100.00
2023-02-24T21:16:15.678Z,100.00
2023-02-24T21:18:47.436Z,100.00
2023-02-24T21:21:21.198Z,100.00
2023-02-24T21:23:51.554Z,100.00
2023-02-24T21:26:23.434Z,100.00
2023-02-24T21:28:58.017Z,100.00
2023-02-24T21:31:29.127Z,100.00
2023-02-24T21:34:05.501Z,100.00
2023-02-24T21:36:38.160Z,100.00
2023-02-24T21:39:09.143Z,100.00
2023-02-24T21:41:39.247Z,100.00
2023-02-24T21:44:09.533Z,100.00
2023-02-24T21:46:39.681Z,100.00
2023-02-24T21:49:15.660Z,100.00
2023-02-24T21:51:48.777Z,100.00
2023-02-24T21:54:19.393Z,100.00
2023-02-24T21:56:49.472Z,100.00
2023-02-24T21:59:19.512Z,100.00
2023-02-24T22:01:49.841Z,100.00
2023-02-24T22:04:21.577Z,100.00
2023-02-24T22:06:54.259Z,100.00
2023-02-24T22:09:25.793Z,100.00
2023-02-24T22:11:55.892Z,100.00
2023-02-24T22:14:26.019Z,100.00
2023-02-24T22:16:56.248Z,100.00
2023-02-24T22:19:26.585Z,100.00
2023-02-24T22:22:02.534Z,100.00
2023-02-24T22:24:32.584Z,100.00
2023-02-24T22:27:02.645Z,100.00
2023-02-24T22:29:33.772Z,100.00
2023-02-24T22:32:05.149Z,100.00
2023-02-24T22:34:35.374Z,100.00
2023-02-24T22:37:08.382Z,100.00
2023-02-24T22:39:38.501Z,100.00
2023-02-24T22:42:08.949Z,100.00
2023-02-24T22:44:39.304Z,100.00
2023-02-24T22:47:09.348Z,100.00
2023-02-24T22:49:39.470Z,100.00
2023-02-24T22:52:16.764Z,100.00
2023-02-24T22:54:46.945Z,100.00
2023-02-24T22:57:17.186Z,100.00
2023-02-24T22:59:47.432Z,100.00
2023-02-24T23:02:17.536Z,100.00
2023-02-24T23:04:47.560Z,100.00
2023-02-24T23:07:20.398Z,100.00
2023-02-24T23:09:53.183Z,100.00
2023-02-24T23:12:23.642Z,100.00
2023-02-24T23:14:53.706Z,100.00
2023-02-24T23:17:24.254Z,100.00
2023-02-24T23:19:54.361Z,100.00
2023-02-24T23:22:27.081Z,100.00
2023-02-24T23:24:57.384Z,100.00
2023-02-24T23:27:27.565Z,100.00
2023-02-24T23:29:58.391Z,100.00
2023-02-24T23:32:28.545Z,100.00
2023-02-24T23:34:58.882Z,100.00
2023-02-24T23:37:32.187Z,100.00
2023-02-24T23:40:02.236Z,100.00
2023-02-24T23:42:32.458Z,100.00
2023-02-24T23:45:04.038Z,100.00
2023-02-24T23:47:35.866Z,100.00
2023-02-24T23:50:07.777Z,100.00
2023-02-24T23:52:40.525Z,100.00
2023-02-24T23:55:11.764Z,100.00
2023-02-24T23:57:42.310Z,100.00
